sensor_id;sensor_type;location;lat;lon;timestamp;P1;durP1;ratioP1;P2;durP2;ratioP2
11039;SDS011;5573;49.592;8.662;2022-12-10T00:02:08;79.47;;;75.20;;
11039;SDS011;5573;49.592;8.662;2022-12-10T00:04:56;72.30;;;68.50;;
11039;SDS011;5573;49.592;8.662;2022-12-10T00:07:44;81.47;;;77.07;;
11039;SDS011;5573;49.592;8.662;2022-12-10T00:10:33;74.73;;;70.77;;
11039;SDS011;5573;49.592;8.662;2022-12-10T00:13:21;76.13;;;72.13;;
11039;SDS011;5573;49.592;8.662;2022-12-10T00:16:10;86.17;;;81.53;;
11039;SDS011;5573;49.592;8.662;2022-12-10T00:18:59;80.23;;;75.83;;
11039;SDS011;5573;49.592;8.662;2022-12-10T00:21:48;72.97;;;69.13;;
11039;SDS011;5573;49.592;8.662;2022-12-10T00:24:36;83.37;;;78.83;;
11039;SDS011;5573;49.592;8.662;2022-12-10T00:27:25;84.30;;;79.93;;
11039;SDS011;5573;49.592;8.662;2022-12-10T00:30:14;84.30;;;79.70;;
11039;SDS011;5573;49.592;8.662;2022-12-10T00:33:02;85.23;;;80.70;;
11039;SDS011;5573;49.592;8.662;2022-12-10T00:35:50;83.17;;;78.57;;
11039;SDS011;5573;49.592;8.662;2022-12-10T00:38:39;78.87;;;74.70;;
11039;SDS011;5573;49.592;8.662;2022-12-10T00:41:30;80.37;;;76.07;;
11039;SDS011;5573;49.592;8.662;2022-12-10T00:44:21;85.27;;;80.70;;
11039;SDS011;5573;49.592;8.662;2022-12-10T00:47:09;78.77;;;74.53;;
11039;SDS011;5573;49.592;8.662;2022-12-10T00:49:57;78.93;;;74.57;;
11039;SDS011;5573;49.592;8.662;2022-12-10T00:52:45;76.80;;;72.60;;
11039;SDS011;5573;49.592;8.662;2022-12-10T00:55:33;77.40;;;73.17;;
11039;SDS011;5573;49.592;8.662;2022-12-10T00:58:21;77.10;;;72.90;;
11039;SDS011;5573;49.592;8.662;2022-12-10T01:01:12;80.87;;;76.40;;
11039;SDS011;5573;49.592;8.662;2022-12-10T01:04:04;81.60;;;77.27;;
11039;SDS011;5573;49.592;8.662;2022-12-10T01:06:54;72.50;;;68.60;;
11039;SDS011;5573;49.592;8.662;2022-12-10T01:09:42;87.60;;;82.97;;
11039;SDS011;5573;49.592;8.662;2022-12-10T01:12:30;81.13;;;76.67;;
11039;SDS011;5573;49.592;8.662;2022-12-10T01:15:18;84.70;;;80.03;;
11039;SDS011;5573;49.592;8.662;2022-12-10T01:18:07;80.57;;;76.13;;
11039;SDS011;5573;49.592;8.662;2022-12-10T01:20:59;72.87;;;68.97;;
11039;SDS011;5573;49.592;8.662;2022-12-10T01:23:49;83.17;;;78.63;;
11039;SDS011;5573;49.592;8.662;2022-12-10T01:26:38;79.57;;;75.37;;
11039;SDS011;5573;49.592;8.662;2022-12-10T01:29:26;76.60;;;72.47;;
11039;SDS011;5573;49.592;8.662;2022-12-10T01:32:14;79.57;;;75.03;;
11039;SDS011;5573;49.592;8.662;2022-12-10T01:35:04;81.13;;;76.83;;
11039;SDS011;5573;49.592;8.662;2022-12-10T01:37:52;80.77;;;76.33;;
11039;SDS011;5573;49.592;8.662;2022-12-10T01:40:40;80.83;;;76.53;;
11039;SDS011;5573;49.592;8.662;2022-12-10T01:43:33;87.90;;;83.13;;
11039;SDS011;5573;49.592;8.662;2022-12-10T01:46:37;74.27;;;70.33;;
11039;SDS011;5573;49.592;8.662;2022-12-10T01:49:33;78.17;;;73.83;;
11039;SDS011;5573;49.592;8.662;2022-12-10T01:52:24;72.37;;;68.50;;
11039;SDS011;5573;49.592;8.662;2022-12-10T01:58:26;75.80;;;71.57;;
11039;SDS011;5573;49.592;8.662;2022-12-10T02:01:16;83.53;;;79.07;;
11039;SDS011;5573;49.592;8.662;2022-12-10T02:04:15;82.77;;;78.23;;
11039;SDS011;5573;49.592;8.662;2022-12-10T02:07:13;77.57;;;73.30;;
11039;SDS011;5573;49.592;8.662;2022-12-10T02:10:08;77.30;;;73.10;;
11039;SDS011;5573;49.592;8.662;2022-12-10T02:13:06;70.40;;;66.43;;
11039;SDS011;5573;49.592;8.662;2022-12-10T02:16:01;67.43;;;63.83;;
11039;SDS011;5573;49.592;8.662;2022-12-10T02:18:55;68.37;;;64.63;;
11039;SDS011;5573;49.592;8.662;2022-12-10T02:21:46;74.97;;;71.00;;
11039;SDS011;5573;49.592;8.662;2022-12-10T02:24:36;77.47;;;73.23;;
11039;SDS011;5573;49.592;8.662;2022-12-10T02:27:29;78.50;;;74.20;;
11039;SDS011;5573;49.592;8.662;2022-12-10T02:30:24;74.43;;;70.43;;
11039;SDS011;5573;49.592;8.662;2022-12-10T02:33:13;80.13;;;75.77;;
11039;SDS011;5573;49.592;8.662;2022-12-10T02:36:04;74.10;;;70.10;;
11039;SDS011;5573;49.592;8.662;2022-12-10T02:38:55;77.80;;;73.47;;
11039;SDS011;5573;49.592;8.662;2022-12-10T02:41:47;79.33;;;75.13;;
11039;SDS011;5573;49.592;8.662;2022-12-10T02:44:39;75.70;;;71.53;;
11039;SDS011;5573;49.592;8.662;2022-12-10T02:47:30;70.60;;;66.77;;
11039;SDS011;5573;49.592;8.662;2022-12-10T02:50:21;75.17;;;71.17;;
11039;SDS011;5573;49.592;8.662;2022-12-10T02:53:10;72.73;;;68.77;;
11039;SDS011;5573;49.592;8.662;2022-12-10T02:56:04;79.63;;;75.37;;
11039;SDS011;5573;49.592;8.662;2022-12-10T02:59:06;72.97;;;69.17;;
11039;SDS011;5573;49.592;8.662;2022-12-10T03:02:06;69.10;;;65.27;;
11039;SDS011;5573;49.592;8.662;2022-12-10T03:05:00;72.70;;;68.77;;
11039;SDS011;5573;49.592;8.662;2022-12-10T03:07:53;65.67;;;62.07;;
11039;SDS011;5573;49.592;8.662;2022-12-10T03:10:48;70.33;;;66.53;;
11039;SDS011;5573;49.592;8.662;2022-12-10T03:13:43;68.80;;;65.17;;
11039;SDS011;5573;49.592;8.662;2022-12-10T03:16:38;70.37;;;66.67;;
11039;SDS011;5573;49.592;8.662;2022-12-10T03:19:30;71.67;;;67.87;;
11039;SDS011;5573;49.592;8.662;2022-12-10T03:22:22;68.57;;;64.67;;
11039;SDS011;5573;49.592;8.662;2022-12-10T03:25:11;75.37;;;71.13;;
11039;SDS011;5573;49.592;8.662;2022-12-10T03:28:05;73.73;;;69.80;;
11039;SDS011;5573;49.592;8.662;2022-12-10T03:30:54;75.90;;;71.87;;
11039;SDS011;5573;49.592;8.662;2022-12-10T03:33:43;72.87;;;68.63;;
11039;SDS011;5573;49.592;8.662;2022-12-10T03:36:34;76.00;;;71.80;;
11039;SDS011;5573;49.592;8.662;2022-12-10T03:39:24;74.40;;;70.47;;
11039;SDS011;5573;49.592;8.662;2022-12-10T03:42:14;79.47;;;75.17;;
11039;SDS011;5573;49.592;8.662;2022-12-10T03:45:02;72.77;;;68.73;;
11039;SDS011;5573;49.592;8.662;2022-12-10T03:47:51;71.40;;;67.60;;
11039;SDS011;5573;49.592;8.662;2022-12-10T03:50:39;77.40;;;73.27;;
11039;SDS011;5573;49.592;8.662;2022-12-10T03:53:27;77.07;;;72.93;;
11039;SDS011;5573;49.592;8.662;2022-12-10T03:56:16;71.13;;;67.30;;
11039;SDS011;5573;49.592;8.662;2022-12-10T03:59:05;78.93;;;74.60;;
11039;SDS011;5573;49.592;8.662;2022-12-10T04:01:53;73.17;;;69.27;;
11039;SDS011;5573;49.592;8.662;2022-12-10T04:04:41;75.60;;;71.53;;
11039;SDS011;5573;49.592;8.662;2022-12-10T04:07:29;72.57;;;68.73;;
11039;SDS011;5573;49.592;8.662;2022-12-10T04:10:17;74.07;;;69.93;;
11039;SDS011;5573;49.592;8.662;2022-12-10T04:13:06;75.73;;;71.80;;
11039;SDS011;5573;49.592;8.662;2022-12-10T04:16:12;68.83;;;65.17;;
11039;SDS011;5573;49.592;8.662;2022-12-10T04:19:16;70.83;;;67.10;;
11039;SDS011;5573;49.592;8.662;2022-12-10T04:22:05;71.20;;;67.43;;
11039;SDS011;5573;49.592;8.662;2022-12-10T04:25:11;78.57;;;74.47;;
11039;SDS011;5573;49.592;8.662;2022-12-10T04:28:19;71.47;;;67.63;;
11039;SDS011;5573;49.592;8.662;2022-12-10T04:31:07;73.63;;;69.63;;
11039;SDS011;5573;49.592;8.662;2022-12-10T04:33:56;72.30;;;68.27;;
11039;SDS011;5573;49.592;8.662;2022-12-10T04:36:45;73.73;;;69.60;;
11039;SDS011;5573;49.592;8.662;2022-12-10T04:39:33;75.73;;;71.43;;
11039;SDS011;5573;49.592;8.662;2022-12-10T04:42:22;65.13;;;61.57;;
11039;SDS011;5573;49.592;8.662;2022-12-10T04:45:11;63.63;;;60.00;;
11039;SDS011;5573;49.592;8.662;2022-12-10T04:47:59;64.60;;;61.03;;
11039;SDS011;5573;49.592;8.662;2022-12-10T04:50:47;70.33;;;66.50;;
11039;SDS011;5573;49.592;8.662;2022-12-10T04:53:35;70.90;;;67.00;;
11039;SDS011;5573;49.592;8.662;2022-12-10T04:56:23;59.87;;;56.70;;
11039;SDS011;5573;49.592;8.662;2022-12-10T04:59:11;74.13;;;70.10;;
11039;SDS011;5573;49.592;8.662;2022-12-10T05:02:01;69.90;;;65.77;;
11039;SDS011;5573;49.592;8.662;2022-12-10T05:04:49;67.57;;;63.87;;
11039;SDS011;5573;49.592;8.662;2022-12-10T05:07:37;76.57;;;72.43;;
11039;SDS011;5573;49.592;8.662;2022-12-10T05:10:25;69.97;;;66.23;;
11039;SDS011;5573;49.592;8.662;2022-12-10T05:13:13;67.60;;;63.93;;
11039;SDS011;5573;49.592;8.662;2022-12-10T05:16:01;68.93;;;65.23;;
11039;SDS011;5573;49.592;8.662;2022-12-10T05:18:52;70.47;;;66.70;;
11039;SDS011;5573;49.592;8.662;2022-12-10T05:21:40;72.93;;;68.73;;
11039;SDS011;5573;49.592;8.662;2022-12-10T05:24:46;67.77;;;64.00;;
11039;SDS011;5573;49.592;8.662;2022-12-10T05:27:34;64.17;;;60.77;;
11039;SDS011;5573;49.592;8.662;2022-12-10T05:30:22;76.30;;;72.10;;
11039;SDS011;5573;49.592;8.662;2022-12-10T05:33:10;72.53;;;68.67;;
11039;SDS011;5573;49.592;8.662;2022-12-10T05:36:00;78.17;;;73.90;;
11039;SDS011;5573;49.592;8.662;2022-12-10T05:38:50;64.47;;;60.87;;
11039;SDS011;5573;49.592;8.662;2022-12-10T05:41:40;70.27;;;66.53;;
11039;SDS011;5573;49.592;8.662;2022-12-10T05:44:30;69.20;;;65.37;;
11039;SDS011;5573;49.592;8.662;2022-12-10T05:47:18;67.60;;;63.67;;
11039;SDS011;5573;49.592;8.662;2022-12-10T05:50:06;74.63;;;70.47;;
11039;SDS011;5573;49.592;8.662;2022-12-10T05:52:56;75.73;;;71.53;;
11039;SDS011;5573;49.592;8.662;2022-12-10T05:55:44;68.77;;;64.80;;
11039;SDS011;5573;49.592;8.662;2022-12-10T05:58:33;60.97;;;57.57;;
11039;SDS011;5573;49.592;8.662;2022-12-10T06:01:22;64.23;;;60.53;;
11039;SDS011;5573;49.592;8.662;2022-12-10T06:04:12;60.67;;;57.37;;
11039;SDS011;5573;49.592;8.662;2022-12-10T06:07:01;63.50;;;60.10;;
11039;SDS011;5573;49.592;8.662;2022-12-10T06:09:57;67.07;;;63.30;;
11039;SDS011;5573;49.592;8.662;2022-12-10T06:12:45;67.50;;;63.77;;
11039;SDS011;5573;49.592;8.662;2022-12-10T06:15:33;61.63;;;58.33;;
11039;SDS011;5573;49.592;8.662;2022-12-10T06:18:21;66.10;;;62.40;;
11039;SDS011;5573;49.592;8.662;2022-12-10T06:21:10;73.00;;;68.93;;
11039;SDS011;5573;49.592;8.662;2022-12-10T06:24:00;60.60;;;57.20;;
11039;SDS011;5573;49.592;8.662;2022-12-10T06:26:49;61.17;;;57.87;;
11039;SDS011;5573;49.592;8.662;2022-12-10T06:29:42;62.20;;;58.70;;
11039;SDS011;5573;49.592;8.662;2022-12-10T06:32:31;61.43;;;58.03;;
11039;SDS011;5573;49.592;8.662;2022-12-10T06:35:19;60.23;;;56.77;;
11039;SDS011;5573;49.592;8.662;2022-12-10T06:38:07;58.20;;;54.97;;
11039;SDS011;5573;49.592;8.662;2022-12-10T06:40:55;53.23;;;50.30;;
11039;SDS011;5573;49.592;8.662;2022-12-10T06:43:44;62.93;;;59.53;;
11039;SDS011;5573;49.592;8.662;2022-12-10T06:46:32;58.23;;;54.97;;
11039;SDS011;5573;49.592;8.662;2022-12-10T06:49:20;55.53;;;52.40;;
11039;SDS011;5573;49.592;8.662;2022-12-10T06:52:08;53.73;;;50.80;;
11039;SDS011;5573;49.592;8.662;2022-12-10T06:54:56;55.63;;;52.63;;
11039;SDS011;5573;49.592;8.662;2022-12-10T06:57:44;54.40;;;51.40;;
11039;SDS011;5573;49.592;8.662;2022-12-10T07:00:33;64.37;;;60.90;;
11039;SDS011;5573;49.592;8.662;2022-12-10T07:03:21;64.37;;;60.73;;
11039;SDS011;5573;49.592;8.662;2022-12-10T07:05:49;64.53;;;60.60;;
11039;SDS011;5573;49.592;8.662;2022-12-10T07:08:17;59.33;;;55.87;;
11039;SDS011;5573;49.592;8.662;2022-12-10T07:10:45;69.27;;;65.50;;
11039;SDS011;5573;49.592;8.662;2022-12-10T07:13:13;67.13;;;63.53;;
11039;SDS011;5573;49.592;8.662;2022-12-10T07:15:42;64.80;;;61.33;;
11039;SDS011;5573;49.592;8.662;2022-12-10T07:18:10;59.60;;;56.10;;
11039;SDS011;5573;49.592;8.662;2022-12-10T07:20:37;71.20;;;67.33;;
11039;SDS011;5573;49.592;8.662;2022-12-10T07:23:05;71.23;;;67.30;;
11039;SDS011;5573;49.592;8.662;2022-12-10T07:25:33;67.73;;;63.93;;
11039;SDS011;5573;49.592;8.662;2022-12-10T07:28:01;70.00;;;66.03;;
11039;SDS011;5573;49.592;8.662;2022-12-10T07:30:29;74.23;;;70.27;;
11039;SDS011;5573;49.592;8.662;2022-12-10T07:32:58;76.53;;;72.23;;
11039;SDS011;5573;49.592;8.662;2022-12-10T07:35:25;76.73;;;72.40;;
11039;SDS011;5573;49.592;8.662;2022-12-10T07:37:53;75.40;;;71.27;;
11039;SDS011;5573;49.592;8.662;2022-12-10T07:40:21;68.60;;;64.87;;
11039;SDS011;5573;49.592;8.662;2022-12-10T07:42:49;81.53;;;76.97;;
11039;SDS011;5573;49.592;8.662;2022-12-10T07:45:17;71.40;;;67.63;;
11039;SDS011;5573;49.592;8.662;2022-12-10T07:47:45;71.53;;;67.70;;
11039;SDS011;5573;49.592;8.662;2022-12-10T07:50:14;74.70;;;70.67;;
11039;SDS011;5573;49.592;8.662;2022-12-10T07:52:42;67.17;;;63.43;;
11039;SDS011;5573;49.592;8.662;2022-12-10T07:55:09;74.33;;;70.20;;
11039;SDS011;5573;49.592;8.662;2022-12-10T07:57:37;78.13;;;73.37;;
11039;SDS011;5573;49.592;8.662;2022-12-10T08:00:05;70.13;;;66.30;;
11039;SDS011;5573;49.592;8.662;2022-12-10T08:02:40;71.50;;;67.47;;
11039;SDS011;5573;49.592;8.662;2022-12-10T08:05:08;78.13;;;73.80;;
11039;SDS011;5573;49.592;8.662;2022-12-10T08:07:38;74.47;;;70.47;;
11039;SDS011;5573;49.592;8.662;2022-12-10T08:10:06;77.53;;;73.30;;
11039;SDS011;5573;49.592;8.662;2022-12-10T08:12:34;75.70;;;71.60;;
11039;SDS011;5573;49.592;8.662;2022-12-10T08:15:02;84.33;;;79.70;;
11039;SDS011;5573;49.592;8.662;2022-12-10T08:17:30;86.73;;;82.03;;
11039;SDS011;5573;49.592;8.662;2022-12-10T08:19:58;87.30;;;82.50;;
11039;SDS011;5573;49.592;8.662;2022-12-10T08:22:25;76.80;;;72.47;;
11039;SDS011;5573;49.592;8.662;2022-12-10T08:24:54;80.23;;;75.93;;
11039;SDS011;5573;49.592;8.662;2022-12-10T08:27:22;77.37;;;73.10;;
11039;SDS011;5573;49.592;8.662;2022-12-10T08:29:50;72.70;;;68.77;;
11039;SDS011;5573;49.592;8.662;2022-12-10T08:32:17;82.27;;;77.83;;
11039;SDS011;5573;49.592;8.662;2022-12-10T08:34:45;75.60;;;71.43;;
11039;SDS011;5573;49.592;8.662;2022-12-10T08:37:13;85.10;;;80.27;;
11039;SDS011;5573;49.592;8.662;2022-12-10T08:39:41;78.33;;;74.03;;
11039;SDS011;5573;49.592;8.662;2022-12-10T08:42:10;78.27;;;73.87;;
11039;SDS011;5573;49.592;8.662;2022-12-10T08:44:38;81.80;;;77.17;;
11039;SDS011;5573;49.592;8.662;2022-12-10T08:47:07;84.90;;;80.17;;
11039;SDS011;5573;49.592;8.662;2022-12-10T08:49:35;85.60;;;81.07;;
11039;SDS011;5573;49.592;8.662;2022-12-10T08:52:03;84.33;;;79.57;;
11039;SDS011;5573;49.592;8.662;2022-12-10T08:54:31;93.27;;;88.17;;
11039;SDS011;5573;49.592;8.662;2022-12-10T08:56:58;83.20;;;78.47;;
11039;SDS011;5573;49.592;8.662;2022-12-10T08:59:27;78.10;;;73.73;;
11039;SDS011;5573;49.592;8.662;2022-12-10T09:01:55;87.07;;;82.37;;
11039;SDS011;5573;49.592;8.662;2022-12-10T09:04:23;80.43;;;76.07;;
11039;SDS011;5573;49.592;8.662;2022-12-10T09:06:50;83.33;;;78.73;;
11039;SDS011;5573;49.592;8.662;2022-12-10T09:09:18;84.20;;;79.47;;
11039;SDS011;5573;49.592;8.662;2022-12-10T09:11:46;81.43;;;77.07;;
11039;SDS011;5573;49.592;8.662;2022-12-10T09:14:14;77.80;;;73.57;;
11039;SDS011;5573;49.592;8.662;2022-12-10T09:16:43;93.30;;;88.33;;
11039;SDS011;5573;49.592;8.662;2022-12-10T09:19:10;80.73;;;76.27;;
11039;SDS011;5573;49.592;8.662;2022-12-10T09:21:45;71.80;;;67.93;;
11039;SDS011;5573;49.592;8.662;2022-12-10T09:24:13;74.73;;;70.43;;
11039;SDS011;5573;49.592;8.662;2022-12-10T09:26:40;75.77;;;71.50;;
11039;SDS011;5573;49.592;8.662;2022-12-10T09:29:08;79.23;;;74.77;;
11039;SDS011;5573;49.592;8.662;2022-12-10T09:31:36;78.23;;;73.93;;
11039;SDS011;5573;49.592;8.662;2022-12-10T09:34:05;77.97;;;73.63;;
11039;SDS011;5573;49.592;8.662;2022-12-10T09:36:33;70.40;;;66.50;;
11039;SDS011;5573;49.592;8.662;2022-12-10T09:39:01;77.43;;;73.23;;
11039;SDS011;5573;49.592;8.662;2022-12-10T09:41:42;73.37;;;69.13;;
11039;SDS011;5573;49.592;8.662;2022-12-10T09:44:23;78.53;;;73.87;;
11039;SDS011;5573;49.592;8.662;2022-12-10T09:46:59;74.40;;;70.23;;
11039;SDS011;5573;49.592;8.662;2022-12-10T09:49:33;69.77;;;65.97;;
11039;SDS011;5573;49.592;8.662;2022-12-10T09:52:11;67.47;;;63.83;;
11039;SDS011;5573;49.592;8.662;2022-12-10T09:54:42;71.93;;;67.93;;
11039;SDS011;5573;49.592;8.662;2022-12-10T09:57:16;75.43;;;71.47;;
11039;SDS011;5573;49.592;8.662;2022-12-10T09:59:48;71.50;;;67.27;;
11039;SDS011;5573;49.592;8.662;2022-12-10T10:02:21;69.37;;;65.53;;
11039;SDS011;5573;49.592;8.662;2022-12-10T10:04:53;83.27;;;78.27;;
11039;SDS011;5573;49.592;8.662;2022-12-10T10:07:28;73.60;;;69.63;;
11039;SDS011;5573;49.592;8.662;2022-12-10T10:09:59;78.17;;;74.00;;
11039;SDS011;5573;49.592;8.662;2022-12-10T10:12:30;77.17;;;72.97;;
11039;SDS011;5573;49.592;8.662;2022-12-10T10:15:01;74.90;;;70.70;;
11039;SDS011;5573;49.592;8.662;2022-12-10T10:17:39;72.87;;;69.00;;
11039;SDS011;5573;49.592;8.662;2022-12-10T10:20:13;83.43;;;79.07;;
11039;SDS011;5573;49.592;8.662;2022-12-10T10:22:41;91.03;;;86.07;;
11039;SDS011;5573;49.592;8.662;2022-12-10T10:25:12;94.33;;;89.07;;
11039;SDS011;5573;49.592;8.662;2022-12-10T10:27:41;89.63;;;84.77;;
11039;SDS011;5573;49.592;8.662;2022-12-10T10:30:13;101.70;;;96.00;;
11039;SDS011;5573;49.592;8.662;2022-12-10T10:32:45;96.70;;;91.37;;
11039;SDS011;5573;49.592;8.662;2022-12-10T10:35:24;91.17;;;86.30;;
11039;SDS011;5573;49.592;8.662;2022-12-10T10:37:56;96.83;;;91.70;;
11039;SDS011;5573;49.592;8.662;2022-12-10T10:40:27;87.60;;;82.73;;
11039;SDS011;5573;49.592;8.662;2022-12-10T10:42:57;94.43;;;89.27;;
11039;SDS011;5573;49.592;8.662;2022-12-10T10:48:11;93.83;;;88.80;;
11039;SDS011;5573;49.592;8.662;2022-12-10T10:50:42;105.27;;;99.53;;
11039;SDS011;5573;49.592;8.662;2022-12-10T10:53:28;107.07;;;101.33;;
11039;SDS011;5573;49.592;8.662;2022-12-10T10:55:59;96.90;;;91.70;;
11039;SDS011;5573;49.592;8.662;2022-12-10T10:58:33;107.80;;;102.07;;
11039;SDS011;5573;49.592;8.662;2022-12-10T11:01:03;106.27;;;100.50;;
11039;SDS011;5573;49.592;8.662;2022-12-10T11:03:33;110.93;;;104.80;;
11039;SDS011;5573;49.592;8.662;2022-12-10T11:06:06;102.07;;;96.53;;
11039;SDS011;5573;49.592;8.662;2022-12-10T11:08:37;109.03;;;103.23;;
11039;SDS011;5573;49.592;8.662;2022-12-10T11:11:06;110.63;;;104.77;;
11039;SDS011;5573;49.592;8.662;2022-12-10T11:13:39;112.80;;;106.83;;
11039;SDS011;5573;49.592;8.662;2022-12-10T11:16:12;119.03;;;112.50;;
11039;SDS011;5573;49.592;8.662;2022-12-10T11:18:52;119.10;;;112.57;;
11039;SDS011;5573;49.592;8.662;2022-12-10T11:21:23;123.90;;;117.13;;
11039;SDS011;5573;49.592;8.662;2022-12-10T11:23:52;134.80;;;127.47;;
11039;SDS011;5573;49.592;8.662;2022-12-10T11:26:26;140.70;;;133.00;;
11039;SDS011;5573;49.592;8.662;2022-12-10T11:29:17;143.53;;;135.67;;
11039;SDS011;5573;49.592;8.662;2022-12-10T11:31:55;140.33;;;132.63;;
11039;SDS011;5573;49.592;8.662;2022-12-10T11:34:41;130.07;;;122.97;;
11039;SDS011;5573;49.592;8.662;2022-12-10T11:37:21;133.70;;;126.40;;
11039;SDS011;5573;49.592;8.662;2022-12-10T11:40:15;141.47;;;133.50;;
11039;SDS011;5573;49.592;8.662;2022-12-10T11:42:58;146.13;;;137.47;;
11039;SDS011;5573;49.592;8.662;2022-12-10T11:45:37;131.80;;;124.37;;
11039;SDS011;5573;49.592;8.662;2022-12-10T11:48:18;128.73;;;121.47;;
11039;SDS011;5573;49.592;8.662;2022-12-10T11:51:02;129.50;;;122.27;;
11039;SDS011;5573;49.592;8.662;2022-12-10T11:53:40;129.60;;;122.23;;
11039;SDS011;5573;49.592;8.662;2022-12-10T11:56:21;121.27;;;114.23;;
11039;SDS011;5573;49.592;8.662;2022-12-10T11:58:56;131.00;;;123.77;;
11039;SDS011;5573;49.592;8.662;2022-12-10T12:01:41;130.90;;;123.50;;
11039;SDS011;5573;49.592;8.662;2022-12-10T12:04:23;117.93;;;111.43;;
11039;SDS011;5573;49.592;8.662;2022-12-10T12:06:58;129.90;;;122.80;;
11039;SDS011;5573;49.592;8.662;2022-12-10T12:09:39;120.90;;;114.37;;
11039;SDS011;5573;49.592;8.662;2022-12-10T12:12:22;120.70;;;114.13;;
11039;SDS011;5573;49.592;8.662;2022-12-10T12:14:58;127.00;;;120.17;;
11039;SDS011;5573;49.592;8.662;2022-12-10T12:17:30;123.33;;;116.17;;
11039;SDS011;5573;49.592;8.662;2022-12-10T12:20:03;137.77;;;130.30;;
11039;SDS011;5573;49.592;8.662;2022-12-10T12:22:41;131.33;;;124.17;;
11039;SDS011;5573;49.592;8.662;2022-12-10T12:25:17;132.47;;;125.10;;
11039;SDS011;5573;49.592;8.662;2022-12-10T12:27:50;135.07;;;127.27;;
11039;SDS011;5573;49.592;8.662;2022-12-10T12:30:23;139.97;;;132.27;;
11039;SDS011;5573;49.592;8.662;2022-12-10T12:32:52;138.83;;;131.30;;
11039;SDS011;5573;49.592;8.662;2022-12-10T12:35:25;140.00;;;132.13;;
11039;SDS011;5573;49.592;8.662;2022-12-10T12:38:01;134.80;;;127.13;;
11039;SDS011;5573;49.592;8.662;2022-12-10T12:40:35;148.43;;;140.30;;
11039;SDS011;5573;49.592;8.662;2022-12-10T12:43:11;142.93;;;135.13;;
11039;SDS011;5573;49.592;8.662;2022-12-10T12:45:44;134.83;;;127.40;;
11039;SDS011;5573;49.592;8.662;2022-12-10T12:48:16;150.33;;;141.83;;
11039;SDS011;5573;49.592;8.662;2022-12-10T12:50:51;156.53;;;148.07;;
11039;SDS011;5573;49.592;8.662;2022-12-10T12:53:23;156.80;;;148.17;;
11039;SDS011;5573;49.592;8.662;2022-12-10T12:56:01;154.20;;;145.30;;
11039;SDS011;5573;49.592;8.662;2022-12-10T12:58:36;151.33;;;143.10;;
11039;SDS011;5573;49.592;8.662;2022-12-10T13:01:12;161.03;;;152.07;;
11039;SDS011;5573;49.592;8.662;2022-12-10T13:03:46;148.73;;;139.80;;
11039;SDS011;5573;49.592;8.662;2022-12-10T13:06:20;163.63;;;153.97;;
11039;SDS011;5573;49.592;8.662;2022-12-10T13:08:52;149.40;;;140.43;;
11039;SDS011;5573;49.592;8.662;2022-12-10T13:11:33;142.10;;;133.93;;
11039;SDS011;5573;49.592;8.662;2022-12-10T13:17:00;139.40;;;131.73;;
11039;SDS011;5573;49.592;8.662;2022-12-10T13:19:34;133.30;;;126.03;;
11039;SDS011;5573;49.592;8.662;2022-12-10T13:22:07;145.73;;;137.70;;
11039;SDS011;5573;49.592;8.662;2022-12-10T13:24:45;141.23;;;133.53;;
11039;SDS011;5573;49.592;8.662;2022-12-10T13:27:16;130.33;;;123.07;;
11039;SDS011;5573;49.592;8.662;2022-12-10T13:29:46;127.30;;;120.50;;
11039;SDS011;5573;49.592;8.662;2022-12-10T13:32:19;129.77;;;122.73;;
11039;SDS011;5573;49.592;8.662;2022-12-10T13:35:15;121.90;;;115.03;;
11039;SDS011;5573;49.592;8.662;2022-12-10T13:37:55;118.87;;;112.53;;
11039;SDS011;5573;49.592;8.662;2022-12-10T13:40:25;117.63;;;111.17;;
11039;SDS011;5573;49.592;8.662;2022-12-10T13:43:25;111.50;;;105.43;;
11039;SDS011;5573;49.592;8.662;2022-12-10T13:46:26;116.20;;;109.60;;
11039;SDS011;5573;49.592;8.662;2022-12-10T13:48:59;108.73;;;102.63;;
11039;SDS011;5573;49.592;8.662;2022-12-10T13:51:36;127.17;;;120.13;;
11039;SDS011;5573;49.592;8.662;2022-12-10T13:54:27;134.13;;;126.67;;
11039;SDS011;5573;49.592;8.662;2022-12-10T13:57:15;126.67;;;119.87;;
11039;SDS011;5573;49.592;8.662;2022-12-10T13:59:57;142.73;;;134.80;;
11039;SDS011;5573;49.592;8.662;2022-12-10T14:02:58;147.33;;;139.33;;
11039;SDS011;5573;49.592;8.662;2022-12-10T14:05:39;145.97;;;137.93;;
11039;SDS011;5573;49.592;8.662;2022-12-10T14:08:16;151.50;;;143.17;;
11039;SDS011;5573;49.592;8.662;2022-12-10T14:10:47;138.97;;;131.37;;
11039;SDS011;5573;49.592;8.662;2022-12-10T14:13:15;168.03;;;158.60;;
11039;SDS011;5573;49.592;8.662;2022-12-10T14:15:51;159.60;;;150.43;;
11039;SDS011;5573;49.592;8.662;2022-12-10T14:18:21;158.60;;;149.90;;
11039;SDS011;5573;49.592;8.662;2022-12-10T14:20:51;161.70;;;152.80;;
11039;SDS011;5573;49.592;8.662;2022-12-10T14:23:22;156.20;;;147.63;;
11039;SDS011;5573;49.592;8.662;2022-12-10T14:26:11;160.30;;;151.70;;
11039;SDS011;5573;49.592;8.662;2022-12-10T14:28:41;157.13;;;148.03;;
11039;SDS011;5573;49.592;8.662;2022-12-10T14:31:14;172.40;;;162.90;;
11039;SDS011;5573;49.592;8.662;2022-12-10T14:33:45;157.70;;;148.93;;
11039;SDS011;5573;49.592;8.662;2022-12-10T14:36:21;169.53;;;160.33;;
11039;SDS011;5573;49.592;8.662;2022-12-10T14:38:53;150.70;;;142.30;;
11039;SDS011;5573;49.592;8.662;2022-12-10T14:41:22;167.00;;;157.60;;
11039;SDS011;5573;49.592;8.662;2022-12-10T14:43:51;147.23;;;139.07;;
11039;SDS011;5573;49.592;8.662;2022-12-10T14:46:23;148.83;;;140.70;;
11039;SDS011;5573;49.592;8.662;2022-12-10T14:48:52;146.17;;;138.13;;
11039;SDS011;5573;49.592;8.662;2022-12-10T14:51:22;149.10;;;141.00;;
11039;SDS011;5573;49.592;8.662;2022-12-10T14:53:53;166.40;;;157.27;;
11039;SDS011;5573;49.592;8.662;2022-12-10T14:56:23;163.83;;;154.83;;
11039;SDS011;5573;49.592;8.662;2022-12-10T14:58:56;164.03;;;155.20;;
11039;SDS011;5573;49.592;8.662;2022-12-10T15:01:30;157.93;;;149.27;;
11039;SDS011;5573;49.592;8.662;2022-12-10T15:04:01;156.23;;;147.73;;
11039;SDS011;5573;49.592;8.662;2022-12-10T15:06:32;155.83;;;147.23;;
11039;SDS011;5573;49.592;8.662;2022-12-10T15:09:02;165.47;;;156.33;;
11039;SDS011;5573;49.592;8.662;2022-12-10T15:11:31;159.40;;;150.23;;
11039;SDS011;5573;49.592;8.662;2022-12-10T15:14:00;173.37;;;163.10;;
11039;SDS011;5573;49.592;8.662;2022-12-10T15:16:37;145.87;;;137.67;;
11039;SDS011;5573;49.592;8.662;2022-12-10T15:19:07;144.07;;;135.97;;
11039;SDS011;5573;49.592;8.662;2022-12-10T15:21:46;145.67;;;137.73;;
11039;SDS011;5573;49.592;8.662;2022-12-10T15:24:17;148.00;;;139.67;;
11039;SDS011;5573;49.592;8.662;2022-12-10T15:26:48;157.43;;;148.73;;
11039;SDS011;5573;49.592;8.662;2022-12-10T15:29:33;156.63;;;147.53;;
11039;SDS011;5573;49.592;8.662;2022-12-10T15:32:05;151.50;;;143.33;;
11039;SDS011;5573;49.592;8.662;2022-12-10T15:34:41;145.67;;;137.70;;
11039;SDS011;5573;49.592;8.662;2022-12-10T15:37:14;146.17;;;137.73;;
11039;SDS011;5573;49.592;8.662;2022-12-10T15:39:46;157.63;;;149.00;;
11039;SDS011;5573;49.592;8.662;2022-12-10T15:45:12;135.83;;;128.43;;
11039;SDS011;5573;49.592;8.662;2022-12-10T15:47:46;131.40;;;124.30;;
11039;SDS011;5573;49.592;8.662;2022-12-10T15:50:15;141.47;;;133.47;;
11039;SDS011;5573;49.592;8.662;2022-12-10T15:52:43;141.83;;;134.03;;
11039;SDS011;5573;49.592;8.662;2022-12-10T15:55:12;146.73;;;138.60;;